Flensburg, Minnesota
Current Conditions -  °F | °C
As of 12:18 PM on Friday 28 Nov 2014 (Local Time) from KLXL Reporting Station
Overcast Overcast  
Wind Chill:   Ceiling: 1600
Heat Index: 16°   Visibility: 10mi
Dew Point:   Wind: 5mph
Humidity: 73%   Direction: 100°E
Pressure: 29.89"   Gusts: NA
Location:  45.96°N, 94.54°W
Report Text: KLXL 281818Z AUTO 10004KT 10SM OVC016 M09/M13 A2989 RMK AO2
Loading
Personal Weather Stations






























Interactive Weather Map New forecast layout! Learn more

10-Day Weather Forecast

Advertisements
Track Severe Weather on mobile